Time;durP1;ratioP1;P1;durP2;ratioP2;P2;SDS_P1;SDS_P2;PMS_P1;PMS_P2;Temp;Humidity;BMP_temperature;BMP_pressure;BME280_temperature;BME280_humidity;BME280_pressure;Samples;Min_cycle;Max_cycle;Signal;HPM_P1;HPM_P2
2021/03/03 00:00:10;;;;;;;5.60;4.00;;;;;;;4.27;64.25;101333.58;1835620;78;20933;-56
2021/03/03 00:02:37;;;;;;;7.67;3.95;;;;;;;4.16;64.45;101324.72;1835753;78;21056;-57
2021/03/03 00:05:07;;;;;;;7.03;3.80;;;;;;;4.13;64.57;101329.97;1835667;78;21394;-57
2021/03/03 00:07:35;;;;;;;8.10;3.75;;;;;;;4.10;64.71;101332.22;1835671;78;21539;-56
2021/03/03 00:10:05;;;;;;;8.63;3.37;;;;;;;4.07;64.81;101333.47;1835352;78;21638;-56
2021/03/03 00:12:33;;;;;;;7.90;3.70;;;;;;;4.07;64.90;101338.02;1835763;78;21487;-57
2021/03/03 00:15:01;;;;;;;6.65;3.70;;;;;;;4.05;65.02;101338.72;1835560;78;21151;-56
2021/03/03 00:17:29;;;;;;;5.58;3.60;;;;;;;4.04;65.09;101342.44;1835628;78;21899;-57
2021/03/03 00:19:57;;;;;;;6.55;3.52;;;;;;;4.07;65.07;101338.02;1835761;78;21484;-59
2021/03/03 00:22:25;;;;;;;6.15;3.50;;;;;;;4.10;64.99;101337.61;1835464;78;21472;-57
2021/03/03 00:24:53;;;;;;;5.72;3.60;;;;;;;4.06;65.00;101338.54;1835662;78;21065;-56
2021/03/03 00:27:21;;;;;;;7.35;3.90;;;;;;;4.05;65.14;101344.10;1835632;78;20961;-56
2021/03/03 00:29:52;;;;;;;6.55;3.77;;;;;;;4.03;65.14;101342.96;1832013;78;21367;-57
2021/03/03 00:32:20;;;;;;;5.85;3.50;;;;;;;3.96;65.24;101346.14;1835583;78;21520;-57
2021/03/03 00:34:48;;;;;;;5.80;3.15;;;;;;;3.94;65.33;101346.83;1835592;78;21566;-58
2021/03/03 00:37:16;;;;;;;7.20;3.55;;;;;;;3.96;65.40;101353.39;1835560;78;21052;-61
2021/03/03 00:39:44;;;;;;;5.05;3.05;;;;;;;3.99;65.53;101348.94;1835754;78;21033;-58
2021/03/03 00:42:12;;;;;;;7.83;3.35;;;;;;;4.02;65.42;101356.63;1835585;78;21404;-58
2021/03/03 00:44:40;;;;;;;4.87;3.30;;;;;;;3.98;65.37;101363.44;1835781;78;21571;-58
2021/03/03 00:47:08;;;;;;;5.10;3.15;;;;;;;3.97;65.40;101359.91;1835633;78;21863;-56
2021/03/03 00:49:36;;;;;;;4.20;3.17;;;;;;;3.96;65.45;101354.22;1835345;78;21126;-57
2021/03/03 00:52:05;;;;;;;7.40;3.58;;;;;;;3.96;65.43;101360.13;1835610;78;21061;-58
2021/03/03 00:54:34;;;;;;;5.33;3.50;;;;;;;3.95;65.43;101357.09;1835582;78;21141;-58
2021/03/03 00:57:03;;;;;;;6.53;3.35;;;;;;;3.93;65.46;101361.84;1805666;78;21163;-58
2021/03/03 00:59:31;;;;;;;5.28;2.72;;;;;;;3.94;65.49;101364.33;1835290;78;21127;-58
2021/03/03 01:02:00;;;;;;;5.53;2.90;;;;;;;3.98;65.38;101364.27;1835629;78;20989;-58
2021/03/03 01:04:28;;;;;;;4.30;3.00;;;;;;;3.97;65.39;101367.16;1835702;78;21163;-58
2021/03/03 01:06:56;;;;;;;6.12;3.20;;;;;;;4.00;65.40;101365.41;1835769;78;21433;-57
2021/03/03 01:09:24;;;;;;;5.30;2.77;;;;;;;3.99;65.34;101362.40;1835765;78;21464;-58
2021/03/03 01:11:52;;;;;;;4.65;3.02;;;;;;;3.97;65.34;101365.81;1835589;78;20981;-57
2021/03/03 01:14:21;;;;;;;4.17;2.45;;;;;;;3.95;65.40;101375.42;1835386;78;22046;-56
2021/03/03 01:16:52;;;;;;;5.92;3.20;;;;;;;3.91;65.41;101368.78;1835379;78;20958;-56
2021/03/03 01:19:21;;;;;;;5.37;2.98;;;;;;;3.85;65.48;101378.97;1835163;78;21148;-56
2021/03/03 01:21:49;;;;;;;4.55;2.70;;;;;;;3.80;65.67;101376.89;1835482;78;20977;-57
2021/03/03 01:24:17;;;;;;;4.60;3.00;;;;;;;3.78;65.72;101379.44;1835736;78;21096;-56
2021/03/03 01:26:46;;;;;;;6.37;2.55;;;;;;;3.77;65.76;101376.44;1835426;78;20977;-57
2021/03/03 01:29:14;;;;;;;4.75;2.75;;;;;;;3.75;65.86;101379.82;1835427;78;21051;-58
2021/03/03 01:31:42;;;;;;;5.33;2.98;;;;;;;3.71;65.92;101378.05;1835609;78;21919;-57
2021/03/03 01:34:10;;;;;;;5.15;2.70;;;;;;;3.69;66.00;101376.05;1835648;78;21143;-57
2021/03/03 01:36:38;;;;;;;5.25;2.72;;;;;;;3.68;66.06;101373.56;1835467;78;21902;-57
2021/03/03 01:39:07;;;;;;;4.37;2.87;;;;;;;3.69;66.07;101382.78;1835772;78;21461;-58
2021/03/03 01:41:35;;;;;;;6.03;2.72;;;;;;;3.67;66.12;101386.19;1835630;78;21017;-58
2021/03/03 01:44:05;;;;;;;3.67;2.40;;;;;;;3.62;66.21;101386.77;1835380;78;21331;-57
2021/03/03 01:46:32;;;;;;;3.47;1.77;;;;;;;3.60;66.26;101379.41;1835425;78;21116;-58
2021/03/03 01:49:00;;;;;;;6.60;2.67;;;;;;;3.59;66.30;101381.77;1835620;78;21537;-57
2021/03/03 01:51:29;;;;;;;6.75;2.52;;;;;;;3.56;66.39;101388.90;1835572;78;21009;-57
2021/03/03 01:53:57;;;;;;;5.78;2.50;;;;;;;3.59;66.49;101390.35;1835452;78;20933;-58
2021/03/03 01:56:25;;;;;;;4.28;3.30;;;;;;;3.59;66.49;101389.84;1831214;78;22368;-57
2021/03/03 01:58:53;;;;;;;5.55;3.12;;;;;;;3.61;66.41;101395.05;1829753;78;21484;-57
2021/03/03 02:01:21;;;;;;;4.87;3.00;;;;;;;3.58;66.38;101394.91;1829522;78;21097;-56
2021/03/03 02:03:49;;;;;;;4.12;2.67;;;;;;;3.61;66.36;101403.95;1829694;78;20997;-56
2021/03/03 02:06:29;;;;;;;4.72;2.40;;;;;;;3.61;66.33;101399.91;1829623;78;21484;-55
2021/03/03 02:09:14;;;;;;;2.90;1.82;;;;;;;3.61;66.33;101400.43;1829827;77;21192;-57
2021/03/03 02:12:06;;;;;;;5.78;2.62;;;;;;;3.61;66.34;101401.26;1823926;78;21108;-57
2021/03/03 02:14:36;;;;;;;3.12;1.98;;;;;;;3.62;66.46;101400.23;1829667;78;21473;-57
2021/03/03 02:17:04;;;;;;;6.53;2.72;;;;;;;3.66;66.31;101399.85;1809085;78;20907;-57
2021/03/03 02:19:36;;;;;;;4.42;2.25;;;;;;;3.66;66.28;101404.72;1809219;78;21544;-58
2021/03/03 02:22:44;;;;;;;3.42;2.20;;;;;;;3.67;66.17;101406.89;1809406;78;21372;-57
2021/03/03 02:25:22;;;;;;;5.90;2.15;;;;;;;3.63;66.20;101403.75;1829782;78;21144;-56
2021/03/03 02:27:50;;;;;;;4.00;2.55;;;;;;;3.60;66.16;101412.23;1829802;78;21069;-56
2021/03/03 02:30:20;;;;;;;4.03;2.47;;;;;;;3.55;66.21;101414.66;1829889;78;21061;-57
2021/03/03 02:32:47;;;;;;;5.97;2.60;;;;;;;3.52;66.28;101419.08;1829597;78;20957;-56
2021/03/03 02:35:16;;;;;;;4.42;2.40;;;;;;;3.50;66.37;101419.80;1829627;78;21140;-57
2021/03/03 02:37:46;;;;;;;3.80;2.35;;;;;;;3.49;66.49;101427.00;1829654;78;20922;-57
2021/03/03 02:40:15;;;;;;;3.72;2.60;;;;;;;3.50;66.50;101430.55;1829600;78;21551;-58
2021/03/03 02:42:43;;;;;;;3.02;2.30;;;;;;;3.50;66.47;101427.86;1829748;78;21120;-58
2021/03/03 02:45:16;;;;;;;4.53;2.72;;;;;;;3.51;66.42;101429.01;1829859;78;21084;-56
2021/03/03 02:47:43;;;;;;;8.13;2.92;;;;;;;3.51;66.37;101443.80;1829712;78;21432;-56
2021/03/03 02:50:13;;;;;;;4.03;2.87;;;;;;;3.51;66.32;101448.36;1829755;78;21017;-57
2021/03/03 02:52:55;;;;;;;5.17;2.35;;;;;;;3.49;66.35;101443.66;1829684;78;21686;-56
2021/03/03 02:55:26;;;;;;;2.65;1.82;;;;;;;3.45;66.34;101447.27;1830578;78;21587;-57
2021/03/03 02:57:57;;;;;;;5.65;2.33;;;;;;;3.44;66.37;101450.95;1835481;78;20930;-57
2021/03/03 03:00:33;;;;;;;5.37;2.92;;;;;;;3.44;66.45;101450.13;1835481;78;21445;-56
2021/03/03 03:03:35;;;;;;;5.55;2.15;;;;;;;3.45;66.46;101456.69;1835508;78;20964;-56
2021/03/03 03:09:39;;;;;;;4.13;2.67;;;;;;;3.46;66.42;101458.34;1844658;76;22648;-57
2021/03/03 03:12:26;;;;;;;3.98;2.77;;;;;;;3.39;66.37;101461.45;1855672;77;21004;-58
2021/03/03 03:15:15;;;;;;;4.95;2.70;;;;;;;3.38;66.42;101466.52;1786116;80;20943;-56
2021/03/03 03:17:44;;;;;;;3.35;2.55;;;;;;;3.38;66.42;101467.87;1789644;80;21016;-56
2021/03/03 03:20:15;;;;;;;5.25;2.95;;;;;;;3.39;66.34;101468.19;1786343;80;21477;-56
2021/03/03 03:22:45;;;;;;;3.00;2.10;;;;;;;3.41;66.26;101468.02;1789707;80;21096;-56
2021/03/03 03:25:14;;;;;;;5.78;3.02;;;;;;;3.42;66.27;101477.75;1755714;80;21447;-57
2021/03/03 03:27:45;;;;;;;5.55;2.85;;;;;;;3.41;66.22;101484.16;1818297;79;21471;-56
2021/03/03 03:30:15;;;;;;;3.87;2.00;;;;;;;3.38;66.22;101475.42;1818389;79;21926;-57
2021/03/03 03:32:43;;;;;;;4.03;2.83;;;;;;;3.38;66.20;101486.70;1786817;79;21091;-57
2021/03/03 03:35:12;;;;;;;4.28;2.52;;;;;;;3.38;66.21;101479.97;1818110;79;20937;-58
2021/03/03 03:37:40;;;;;;;6.83;3.10;;;;;;;3.34;66.24;101480.03;1786223;80;20951;-57
2021/03/03 03:40:09;;;;;;;3.58;2.58;;;;;;;3.30;66.27;101489.01;1789657;80;21263;-56
2021/03/03 03:42:39;;;;;;;4.80;3.15;;;;;;;3.27;66.36;101484.51;1786114;80;21553;-56
2021/03/03 03:45:09;;;;;;;5.10;2.75;;;;;;;3.29;66.32;101487.83;1759398;80;20989;-56
2021/03/03 03:47:37;;;;;;;5.67;2.95;;;;;;;3.30;66.41;101489.52;1786021;79;21518;-58
2021/03/03 03:50:07;;;;;;;4.95;2.30;;;;;;;3.31;66.30;101491.19;1818276;78;21056;-56
2021/03/03 03:52:35;;;;;;;5.45;2.75;;;;;;;3.31;66.23;101488.50;1818401;79;21330;-58
2021/03/03 03:55:04;;;;;;;6.17;2.87;;;;;;;3.29;66.23;101485.97;1785869;80;20942;-58
2021/03/03 03:57:37;;;;;;;5.78;2.67;;;;;;;3.29;66.22;101487.83;1789800;80;21521;-57
2021/03/03 04:00:08;;;;;;;4.90;2.67;;;;;;;3.30;66.16;101485.48;1780871;79;21011;-58
2021/03/03 04:02:38;;;;;;;4.78;2.65;;;;;;;3.34;66.05;101486.75;1789789;80;21590;-55
2021/03/03 04:05:08;;;;;;;4.22;2.72;;;;;;;3.33;65.91;101488.61;1818306;79;21399;-55
2021/03/03 04:07:38;;;;;;;5.65;2.70;;;;;;;3.33;65.84;101490.47;1817728;79;21198;-56
2021/03/03 04:10:10;;;;;;;6.90;2.47;;;;;;;3.28;65.86;101488.34;1802545;79;21135;-56
2021/03/03 04:12:38;;;;;;;4.00;2.50;;;;;;;3.26;65.86;101490.92;1813280;78;20942;-57
2021/03/03 04:15:08;;;;;;;3.25;2.65;;;;;;;3.23;65.87;101490.77;1802550;79;21020;-57
2021/03/03 04:17:37;;;;;;;4.55;2.47;;;;;;;3.23;65.96;101494.80;1813300;79;22775;-57
2021/03/03 04:20:07;;;;;;;4.90;2.67;;;;;;;3.18;66.01;101493.19;1802150;79;21039;-57
2021/03/03 04:22:38;;;;;;;3.50;2.60;;;;;;;3.16;66.06;101498.45;1812866;79;20961;-57
2021/03/03 04:25:10;;;;;;;4.28;2.20;;;;;;;3.12;66.13;101502.84;1812878;79;21016;-58
2021/03/03 04:27:39;;;;;;;5.70;2.77;;;;;;;3.11;66.11;101501.70;1798650;79;21554;-57
2021/03/03 04:30:10;;;;;;;6.72;2.80;;;;;;;3.13;66.11;101501.82;1812565;79;21202;-60
2021/03/03 04:32:38;;;;;;;2.92;2.62;;;;;;;3.11;66.07;101505.73;1792139;79;21013;-57
2021/03/03 04:35:07;;;;;;;3.92;2.70;;;;;;;3.09;66.13;101509.11;1808289;79;21008;-57
2021/03/03 04:37:38;;;;;;;4.12;2.75;;;;;;;3.07;66.15;101513.34;1773172;79;21138;-57
2021/03/03 04:40:11;;;;;;;6.05;2.87;;;;;;;3.06;66.15;101514.36;1794033;80;21161;-58
2021/03/03 04:42:38;;;;;;;5.67;2.50;;;;;;;3.07;66.15;101517.37;1794290;80;21521;-56
2021/03/03 04:45:09;;;;;;;3.33;2.65;;;;;;;3.06;66.09;101521.08;1793873;80;20956;-57
2021/03/03 04:47:38;;;;;;;4.20;2.50;;;;;;;3.04;66.14;101519.59;1753154;81;21036;-57
2021/03/03 04:50:08;;;;;;;5.47;2.77;;;;;;;3.01;66.22;101517.30;1807081;79;20965;-58
2021/03/03 04:52:37;;;;;;;4.70;2.92;;;;;;;2.99;66.24;101528.72;1802178;79;21617;-58
2021/03/03 04:55:06;;;;;;;4.67;2.67;;;;;;;2.97;66.34;101528.09;1758799;79;21433;-56
2021/03/03 04:57:34;;;;;;;5.78;3.12;;;;;;;2.97;66.32;101530.27;1802110;79;21020;-56
2021/03/03 05:00:06;;;;;;;4.67;2.65;;;;;;;2.95;66.33;101536.86;1798503;79;20944;-57
2021/03/03 05:02:33;;;;;;;5.22;2.70;;;;;;;2.95;66.33;101543.07;1798616;79;20968;-56
2021/03/03 05:05:02;;;;;;;5.92;2.60;;;;;;;2.92;66.39;101543.43;1798546;79;20893;-57
2021/03/03 05:07:31;;;;;;;3.58;2.75;;;;;;;2.92;66.49;101547.97;1798646;79;21209;-56
2021/03/03 05:10:00;;;;;;;3.90;2.65;;;;;;;2.95;66.53;101555.17;1788647;79;20957;-58
2021/03/03 05:12:29;;;;;;;5.03;2.55;;;;;;;3.03;66.65;101556.91;1787958;80;21095;-57
2021/03/03 05:14:59;;;;;;;5.33;3.08;;;;;;;3.09;66.38;101551.64;1780329;79;21583;-58
2021/03/03 05:17:27;;;;;;;3.30;2.40;;;;;;;3.15;66.19;101564.02;1775228;79;21167;-57
2021/03/03 05:19:55;;;;;;;4.47;3.00;;;;;;;3.20;66.08;101571.02;1768809;79;21760;-57
2021/03/03 05:22:23;;;;;;;7.15;2.95;;;;;;;3.23;65.93;101571.45;1762856;81;21170;-56
2021/03/03 05:24:50;;;;;;;5.42;3.15;;;;;;;3.24;65.79;101572.28;1762432;81;21654;-56
2021/03/03 05:27:18;;;;;;;4.37;2.75;;;;;;;3.24;65.72;101566.91;1763006;81;21609;-56
2021/03/03 05:29:47;;;;;;;5.67;3.33;;;;;;;3.25;65.66;101576.16;1763139;81;21585;-57
2021/03/03 05:32:15;;;;;;;4.20;2.90;;;;;;;3.25;65.65;101582.05;1763270;81;23670;-56
2021/03/03 05:34:43;;;;;;;6.00;3.05;;;;;;;3.24;65.76;101583.05;1763185;81;21555;-57
2021/03/03 05:37:11;;;;;;;5.05;3.15;;;;;;;3.28;65.73;101581.66;1763255;81;21481;-55
2021/03/03 05:39:39;;;;;;;5.15;2.95;;;;;;;3.28;65.65;101582.49;1785340;80;20967;-58
2021/03/03 05:42:07;;;;;;;6.25;3.40;;;;;;;3.28;65.63;101591.08;1794984;80;21020;-56
2021/03/03 05:44:35;;;;;;;4.53;3.42;;;;;;;3.30;65.65;101584.50;1795123;80;21194;-55
2021/03/03 05:47:03;;;;;;;5.45;3.08;;;;;;;3.31;65.66;101597.44;1794792;80;20957;-56
2021/03/03 05:49:31;;;;;;;8.43;3.55;;;;;;;3.31;65.66;101591.55;1794694;80;20972;-56
2021/03/03 05:51:59;;;;;;;5.12;3.10;;;;;;;3.32;65.66;101593.20;1794956;80;21051;-58
2021/03/03 05:54:27;;;;;;;5.78;3.20;;;;;;;3.37;65.55;101599.37;1794732;80;21542;-56
2021/03/03 05:56:55;;;;;;;7.00;3.05;;;;;;;3.39;65.52;101594.62;1795104;80;23584;-58
2021/03/03 05:59:23;;;;;;;4.75;3.22;;;;;;;3.43;65.41;101598.62;1794818;80;21147;-57
2021/03/03 06:01:51;;;;;;;5.30;3.20;;;;;;;3.47;65.36;101603.95;1794704;80;21256;-55
2021/03/03 06:04:21;;;;;;;5.03;2.75;;;;;;;3.50;65.29;101606.28;1793529;80;21091;-56
2021/03/03 06:06:48;;;;;;;6.03;3.27;;;;;;;3.54;65.14;101608.06;1793745;80;21158;-56
2021/03/03 06:09:16;;;;;;;4.35;2.98;;;;;;;3.59;65.04;101602.95;1789534;80;21666;-56
2021/03/03 06:11:44;;;;;;;4.50;2.92;;;;;;;3.64;64.89;101611.30;1783546;80;21137;-56
2021/03/03 06:14:12;;;;;;;6.50;3.40;;;;;;;3.67;64.83;101611.44;1802928;79;21096;-55
2021/03/03 06:16:41;;;;;;;7.03;3.40;;;;;;;3.71;64.78;101615.44;1803032;79;20930;-55
2021/03/03 06:19:09;;;;;;;4.53;3.08;;;;;;;3.76;64.59;101623.77;1803048;79;21064;-56
2021/03/03 06:21:37;;;;;;;6.62;3.58;;;;;;;3.82;64.45;101623.02;1803015;79;21131;-55
2021/03/03 06:24:07;;;;;;;5.20;3.12;;;;;;;3.89;64.24;101625.25;1803025;79;21088;-56
2021/03/03 06:26:56;;;;;;;6.53;3.20;;;;;;;3.94;63.98;101621.48;1802895;79;21049;-55
2021/03/03 06:29:25;;;;;;;5.53;3.80;;;;;;;3.99;63.99;101633.86;1802837;79;21203;-56
2021/03/03 06:31:52;;;;;;;9.70;3.77;;;;;;;4.04;63.91;101630.59;1803079;79;20945;-56
2021/03/03 06:34:24;;;;;;;4.70;3.02;;;;;;;4.11;63.91;101632.87;1799826;79;21382;-54
2021/03/03 06:37:07;;;;;;;4.97;3.40;;;;;;;4.18;63.68;101631.58;1802867;79;20965;-56
2021/03/03 06:39:36;;;;;;;5.20;3.02;;;;;;;4.24;63.46;101626.25;1802993;79;21531;-55
2021/03/03 06:42:10;;;;;;;8.13;3.95;;;;;;;4.34;63.17;101621.38;1803084;79;21180;-55
2021/03/03 06:44:48;;;;;;;5.22;2.80;;;;;;;4.41;63.10;101617.41;1751081;80;21567;-59
2021/03/03 06:47:16;;;;;;;4.67;3.25;;;;;;;4.49;62.77;101616.43;1765132;80;21297;-56
2021/03/03 06:49:46;;;;;;;7.08;3.40;;;;;;;4.54;62.53;101620.20;1802666;79;21182;-57
2021/03/03 06:52:14;;;;;;;6.08;3.45;;;;;;;4.94;61.97;101616.48;1803206;79;21504;-58
2021/03/03 06:54:41;;;;;;;5.37;2.83;;;;;;;5.92;60.58;101620.72;1802965;79;21040;-55
2021/03/03 06:57:13;;;;;;;6.78;3.77;;;;;;;7.08;58.06;101612.78;1802806;79;21140;-59
2021/03/03 06:59:45;;;;;;;6.03;3.22;;;;;;;8.23;56.08;101613.23;1802998;79;20942;-57
2021/03/03 07:02:13;;;;;;;5.40;3.52;;;;;;;9.40;53.01;101606.67;1802892;79;21025;-64
2021/03/03 07:04:43;;;;;;;5.37;3.08;;;;;;;10.43;50.55;101604.89;1802906;79;20945;-67
2021/03/03 07:07:16;;;;;;;3.98;3.02;;;;;;;11.36;48.20;101600.00;1802653;79;20942;-68
2021/03/03 07:09:50;;;;;;;5.90;3.15;;;;;;;12.16;45.99;101613.61;1802836;79;20922;-65
2021/03/03 07:12:26;;;;;;;4.07;3.00;;;;;;;12.82;43.58;101611.17;1803137;79;21018;-70
2021/03/03 07:15:03;;;;;;;4.25;3.58;;;;;;;13.39;42.33;101605.50;1803129;79;21012;-69
2021/03/03 07:17:36;;;;;;;3.90;2.80;;;;;;;13.99;41.09;101615.52;1803040;79;21132;-72
2021/03/03 07:20:17;;;;;;;3.62;2.83;;;;;;;14.52;39.77;101609.75;1803025;79;21092;-65
2021/03/03 07:22:52;;;;;;;6.47;3.40;;;;;;;14.91;38.05;101613.63;1803100;79;21135;-70
2021/03/03 07:25:21;;;;;;;3.37;2.60;;;;;;;15.23;37.68;101616.84;1803037;79;21418;-70
2021/03/03 07:27:51;;;;;;;5.12;2.77;;;;;;;15.60;36.91;101620.03;1803207;79;21185;-73
2021/03/03 07:30:25;;;;;;;3.92;2.87;;;;;;;15.87;35.56;101616.63;1803077;79;21119;-71
2021/03/03 07:32:54;;;;;;;5.47;2.85;;;;;;;16.07;35.07;101616.67;1803410;79;20918;-68
2021/03/03 07:35:26;;;;;;;5.12;3.60;;;;;;;16.31;34.89;101611.48;1801478;79;21480;-73
2021/03/03 07:37:56;;;;;;;5.12;3.60;;;;;;;16.61;34.38;101620.29;1803127;79;22187;-71
2021/03/03 07:40:30;;;;;;;4.97;3.58;;;;;;;16.92;34.43;101612.06;1803027;79;21119;-71
2021/03/03 07:43:00;;;;;;;4.53;3.02;;;;;;;17.32;33.44;101609.77;1801542;79;21159;-68
2021/03/03 07:45:39;;;;;;;4.10;3.05;;;;;;;17.62;32.92;101606.09;1791885;79;21107;-66
2021/03/03 07:48:09;;;;;;;3.90;3.05;;;;;;;17.91;32.29;101608.20;1778546;79;21134;-73
2021/03/03 07:50:38;;;;;;;5.85;4.00;;;;;;;18.21;32.00;101614.08;1747738;82;21234;-73
2021/03/03 07:53:08;;;;;;;3.02;2.47;;;;;;;18.44;31.28;101609.77;1774188;80;21556;-73
2021/03/03 07:55:37;;;;;;;4.85;3.20;;;;;;;18.54;30.64;101606.92;1777127;80;21031;-70
2021/03/03 07:58:07;;;;;;;4.58;2.80;;;;;;;18.70;30.91;101605.45;1776687;80;21585;-71
2021/03/03 08:00:40;;;;;;;4.00;2.45;;;;;;;18.95;30.18;101606.59;1776479;79;21225;-70
2021/03/03 08:03:09;;;;;;;4.47;2.67;;;;;;;19.13;29.78;101609.18;1776834;79;21406;-69
2021/03/03 08:05:39;;;;;;;3.80;3.10;;;;;;;19.22;29.69;101605.23;1775335;80;21198;-73
2021/03/03 08:08:26;;;;;;;5.17;2.95;;;;;;;19.35;29.38;101612.23;1776645;80;21039;-73
2021/03/03 08:11:10;;;;;;;3.15;2.77;;;;;;;19.51;29.19;101615.63;1781437;79;20980;-72
2021/03/03 08:13:44;;;;;;;3.35;2.77;;;;;;;19.63;28.89;101611.12;1835547;77;20976;-73
2021/03/03 08:16:10;;;;;;;5.40;2.85;;;;;;;19.73;28.83;101614.31;1835649;76;21191;-77
2021/03/03 08:21:32;;;;;;;3.75;2.65;;;;;;;19.87;28.08;101612.44;1873134;76;23256;-70
2021/03/03 08:24:01;;;;;;;4.15;2.77;;;;;;;19.72;27.78;101604.36;1811248;78;20995;-70
2021/03/03 08:26:34;;;;;;;3.42;2.42;;;;;;;19.58;28.00;101618.05;1841167;78;21218;-66
2021/03/03 08:29:18;;;;;;;3.33;2.50;;;;;;;19.52;28.01;101606.26;1811772;78;21565;-65
2021/03/03 08:31:46;;;;;;;3.77;2.75;;;;;;;19.50;28.14;101612.61;1841199;78;20978;-70
2021/03/03 08:34:15;;;;;;;2.55;2.25;;;;;;;19.55;28.08;101611.73;1840798;78;21595;-66
2021/03/03 08:36:48;;;;;;;3.47;2.55;;;;;;;19.65;28.46;101611.63;1841053;78;20991;-67
2021/03/03 08:39:22;;;;;;;2.65;2.35;;;;;;;19.82;27.62;101613.36;1811663;78;21434;-69
2021/03/03 08:41:50;;;;;;;6.47;2.27;;;;;;;19.81;27.74;101609.49;1840982;76;20947;-66
2021/03/03 08:44:18;;;;;;;3.58;2.70;;;;;;;19.78;27.61;101608.72;1844309;77;21058;-64
2021/03/03 08:46:48;;;;;;;3.50;2.58;;;;;;;19.76;27.34;101608.18;1840712;77;21193;-69
2021/03/03 08:49:27;;;;;;;3.75;2.45;;;;;;;19.60;27.33;101605.62;1825136;78;21230;-72
2021/03/03 08:52:09;;;;;;;3.83;2.75;;;;;;;19.42;27.44;101606.38;1806546;79;21346;-70
2021/03/03 08:54:42;;;;;;;5.12;2.80;;;;;;;19.32;27.82;101605.12;1828333;77;21154;-68
2021/03/03 08:57:30;;;;;;;2.52;2.33;;;;;;;19.35;28.02;101605.33;1838408;76;21177;-68
2021/03/03 08:59:58;;;;;;;4.25;2.80;;;;;;;19.49;27.70;101612.92;1829116;78;21582;-73
2021/03/03 09:02:38;;;;;;;4.05;2.25;;;;;;;19.55;27.48;101608.41;1806444;79;21109;-68
2021/03/03 09:05:12;;;;;;;3.20;2.20;;;;;;;19.53;27.50;101606.52;1728710;82;21349;-75
2021/03/03 09:07:40;;;;;;;3.02;2.72;;;;;;;19.57;27.72;101604.00;1745349;82;21154;-80
2021/03/03 09:10:15;;;;;;;2.77;1.87;;;;;;;19.73;27.57;101610.98;1748459;82;21000;-69
2021/03/03 09:12:44;;;;;;;3.92;2.27;;;;;;;19.75;27.27;101605.98;1753146;81;21206;-68
2021/03/03 09:15:15;;;;;;;3.12;1.32;;;;;;;19.67;27.31;101610.23;1764526;80;21605;-70
2021/03/03 09:17:45;;;;;;;3.55;2.00;;;;;;;19.56;27.10;101606.47;1730835;81;21380;-73
2021/03/03 09:20:17;;;;;;;2.08;1.55;;;;;;;19.25;27.26;101614.28;1776309;80;21225;-69
2021/03/03 09:22:46;;;;;;;2.62;1.60;;;;;;;18.72;27.71;101617.02;1754153;81;21176;-67
2021/03/03 09:25:19;;;;;;;2.33;1.40;;;;;;;18.08;28.07;101621.58;1767239;81;21199;-67
2021/03/03 09:27:55;;;;;;;2.98;1.67;;;;;;;17.28;28.82;101618.86;1752218;81;21136;-71
2021/03/03 09:30:38;;;;;;;4.92;1.65;;;;;;;16.40;29.95;101620.02;1752386;80;21215;-66
2021/03/03 09:33:07;;;;;;;2.05;1.85;;;;;;;15.60;31.20;101627.72;1788123;80;21159;-69
2021/03/03 09:35:36;;;;;;;4.40;2.42;;;;;;;14.84;32.55;101627.27;1763305;80;21020;-72
2021/03/03 09:38:05;;;;;;;2.60;2.37;;;;;;;14.28;33.60;101623.45;1787354;80;21191;-67
2021/03/03 09:40:36;;;;;;;5.20;2.83;;;;;;;13.81;34.62;101624.05;1697124;82;21647;-66
2021/03/03 09:43:05;;;;;;;4.92;2.80;;;;;;;13.36;35.39;101623.75;1742917;80;21253;-75
2021/03/03 09:45:33;;;;;;;4.37;2.67;;;;;;;12.93;36.19;101631.31;1766386;81;21489;-64
2021/03/03 09:48:05;;;;;;;4.47;2.85;;;;;;;12.56;37.19;101622.77;1767017;81;21016;-64
2021/03/03 09:50:35;;;;;;;6.78;3.80;;;;;;;12.25;38.27;101629.59;1767098;80;21063;-76
2021/03/03 09:53:03;;;;;;;5.60;3.92;;;;;;;11.93;38.99;101622.73;1766886;81;20921;-68
2021/03/03 09:55:37;;;;;;;6.17;3.72;;;;;;;11.67;39.84;101631.45;1766539;80;21291;-67
2021/03/03 09:58:06;;;;;;;6.53;3.55;;;;;;;11.44;40.47;101624.14;1752095;81;21047;-69
2021/03/03 10:00:37;;;;;;;5.65;3.67;;;;;;;11.41;40.81;101624.10;1766822;80;21206;-71
2021/03/03 10:03:12;;;;;;;4.78;2.70;;;;;;;11.58;41.03;101624.71;1767022;81;21016;-71
2021/03/03 10:05:41;;;;;;;6.12;3.37;;;;;;;11.92;40.48;101631.17;1767026;81;21486;-77
2021/03/03 10:08:12;;;;;;;3.05;2.75;;;;;;;12.20;40.06;101633.05;1766608;79;21356;-75
2021/03/03 10:10:47;;;;;;;5.20;3.00;;;;;;;12.42;39.58;101621.73;1766843;81;20961;-74
2021/03/03 10:13:22;;;;;;;3.52;2.85;;;;;;;12.65;39.47;101620.75;1752387;81;21023;-67
2021/03/03 10:15:51;;;;;;;2.67;2.10;;;;;;;12.98;38.65;101604.89;1765724;81;21254;-68
2021/03/03 10:18:21;;;;;;;3.77;2.40;;;;;;;13.26;37.97;101612.69;1759742;80;21552;-71
2021/03/03 10:20:53;;;;;;;4.10;2.80;;;;;;;13.49;37.64;101601.52;1762379;79;21239;-65
2021/03/03 10:23:26;;;;;;;5.37;2.45;;;;;;;13.78;37.35;101596.37;1752540;81;21015;-66
2021/03/03 10:26:07;;;;;;;3.90;2.27;;;;;;;14.09;36.99;101603.00;1753066;81;21600;-72
2021/03/03 10:28:37;;;;;;;3.37;2.50;;;;;;;14.37;35.96;101593.16;1750854;81;21612;-70
2021/03/03 10:31:08;;;;;;;1.95;1.75;;;;;;;14.53;35.68;101593.60;1761346;80;21123;-63
2021/03/03 10:33:42;;;;;;;4.65;2.27;;;;;;;14.69;35.42;101590.44;1765322;81;21191;-69
2021/03/03 10:36:23;;;;;;;6.87;2.40;;;;;;;14.84;34.91;101585.61;1765059;81;20969;-67
2021/03/03 10:38:54;;;;;;;3.60;1.90;;;;;;;14.92;35.01;101591.16;1748776;82;21036;-69
2021/03/03 10:41:34;;;;;;;1.42;1.27;;;;;;;15.05;34.81;101586.57;1720709;82;20905;-68
2021/03/03 10:44:05;;;;;;;2.90;1.77;;;;;;;15.24;34.38;101586.95;1749766;81;21543;-72
2021/03/03 10:46:35;;;;;;;2.98;1.45;;;;;;;15.42;33.92;101582.40;1749858;81;21433;-63
2021/03/03 10:49:13;;;;;;;3.05;1.55;;;;;;;15.54;33.62;101578.87;1743983;80;21149;-69
2021/03/03 10:51:43;;;;;;;2.55;1.70;;;;;;;15.48;33.34;101578.58;1749870;82;21154;-66
2021/03/03 10:54:13;;;;;;;2.92;1.60;;;;;;;15.42;33.50;101572.80;1720311;82;21178;-77
2021/03/03 10:56:43;;;;;;;2.45;1.55;;;;;;;15.38;33.63;101584.02;1720513;82;21617;-76
2021/03/03 11:02:06;;;;;;;5.67;1.65;;;;;;;15.54;33.44;101573.38;1859067;75;22733;-67
2021/03/03 11:04:46;;;;;;;2.47;1.30;;;;;;;15.57;33.16;101571.48;1826420;78;21627;-65
2021/03/03 11:07:15;;;;;;;2.10;1.32;;;;;;;15.66;33.26;101580.06;1826629;78;21366;-80
2021/03/03 11:09:52;;;;;;;1.87;1.27;;;;;;;15.85;32.99;101577.62;1826384;78;21551;-68
2021/03/03 11:12:25;;;;;;;2.40;1.12;;;;;;;15.98;32.78;101572.19;1826964;78;21559;-72
2021/03/03 11:14:54;;;;;;;2.22;1.00;;;;;;;15.77;32.63;101565.28;1825593;78;21041;-76
2021/03/03 11:17:21;;;;;;;1.62;1.15;;;;;;;15.80;32.57;101572.95;1826363;78;21114;-74
2021/03/03 11:19:49;;;;;;;1.42;0.93;;;;;;;15.91;32.59;101566.94;1826217;78;21798;-76
2021/03/03 11:22:18;;;;;;;2.65;1.17;;;;;;;15.97;32.37;101562.31;1826530;78;21602;-68
2021/03/03 11:24:46;;;;;;;2.70;1.27;;;;;;;15.86;32.34;101564.73;1826575;78;21534;-70
2021/03/03 11:27:14;;;;;;;1.70;1.15;;;;;;;15.50;32.38;101561.84;1825914;78;21546;-68
2021/03/03 11:29:43;;;;;;;2.40;1.25;;;;;;;15.08;32.80;101560.56;1826545;78;21119;-69
2021/03/03 11:32:13;;;;;;;1.82;1.05;;;;;;;14.96;33.33;101556.13;1825537;78;21383;-64
2021/03/03 11:34:41;;;;;;;1.65;0.98;;;;;;;14.78;33.64;101555.99;1826837;78;21102;-73
2021/03/03 11:37:10;;;;;;;3.77;1.40;;;;;;;14.49;33.90;101553.31;1826312;78;21170;-69
2021/03/03 11:39:38;;;;;;;1.80;1.35;;;;;;;14.46;34.19;101553.82;1825675;78;21591;-69
2021/03/03 11:42:06;;;;;;;2.25;1.55;;;;;;;14.47;34.18;101543.99;1824963;78;20896;-70
2021/03/03 11:44:37;;;;;;;3.83;1.47;;;;;;;14.57;34.05;101546.53;1793420;78;21737;-79
2021/03/03 11:47:05;;;;;;;2.55;1.47;;;;;;;14.72;34.20;101547.47;1824850;78;21169;-66
2021/03/03 11:49:33;;;;;;;3.37;1.30;;;;;;;14.79;33.95;101545.86;1824797;78;20963;-67
2021/03/03 11:52:01;;;;;;;1.57;1.20;;;;;;;14.65;33.69;101549.63;1824601;78;21152;-67
2021/03/03 11:54:29;;;;;;;1.98;1.40;;;;;;;14.24;33.95;101545.67;1824614;78;21045;-71